sensor_id;sensor_type;location;lat;lon;timestamp;pressure;altitude;pressure_sealevel;temperature;humidity
26823;BME280;14852;51.910;8.878;2023-01-28T00:01:10;100931.38;;;4.41;59.79
26823;BME280;14852;51.910;8.878;2023-01-28T00:03:36;100929.66;;;4.40;59.90
26823;BME280;14852;51.910;8.878;2023-01-28T00:06:09;100932.22;;;4.42;59.70
26823;BME280;14852;51.910;8.878;2023-01-28T00:08:36;100928.78;;;4.43;59.57
26823;BME280;14852;51.910;8.878;2023-01-28T00:11:04;100932.22;;;4.46;59.81
26823;BME280;14852;51.910;8.878;2023-01-28T00:13:31;100936.47;;;4.49;59.53
26823;BME280;14852;51.910;8.878;2023-01-28T00:16:02;100936.47;;;4.49;59.41
26823;BME280;14852;51.910;8.878;2023-01-28T00:18:30;100932.22;;;4.46;59.58
26823;BME280;14852;51.910;8.878;2023-01-28T00:21:10;100940.78;;;4.48;59.81
26823;BME280;14852;51.910;8.878;2023-01-28T00:23:38;100938.22;;;4.45;59.48
26823;BME280;14852;51.910;8.878;2023-01-28T00:26:11;100930.50;;;4.45;59.95
26823;BME280;14852;51.910;8.878;2023-01-28T00:28:42;100933.06;;;4.45;59.34
26823;BME280;14852;51.910;8.878;2023-01-28T00:31:23;100923.63;;;4.49;59.37
26823;BME280;14852;51.910;8.878;2023-01-28T00:33:50;100928.78;;;4.47;59.46
26823;BME280;14852;51.910;8.878;2023-01-28T00:36:18;100934.78;;;4.45;59.59
26823;BME280;14852;51.910;8.878;2023-01-28T00:38:53;100936.53;;;4.43;59.50
26823;BME280;14852;51.910;8.878;2023-01-28T00:41:22;100936.53;;;4.43;59.60
26823;BME280;14852;51.910;8.878;2023-01-28T00:43:50;100945.97;;;4.42;59.63
26823;BME280;14852;51.910;8.878;2023-01-28T00:46:17;100937.38;;;4.42;59.65
26823;BME280;14852;51.910;8.878;2023-01-28T00:48:44;100942.53;;;4.40;59.41
26823;BME280;14852;51.910;8.878;2023-01-28T00:51:13;100942.53;;;4.42;59.37
26823;BME280;14852;51.910;8.878;2023-01-28T00:53:40;100932.22;;;4.42;59.55
26823;BME280;14852;51.910;8.878;2023-01-28T00:56:08;100942.53;;;4.42;59.61
26823;BME280;14852;51.910;8.878;2023-01-28T00:58:35;100943.38;;;4.41;59.55
26823;BME280;14852;51.910;8.878;2023-01-28T01:01:14;100940.78;;;4.45;59.55
26823;BME280;14852;51.910;8.878;2023-01-28T01:03:42;100939.09;;;4.43;59.21
26823;BME280;14852;51.910;8.878;2023-01-28T01:06:10;100941.66;;;4.43;59.38
26823;BME280;14852;51.910;8.878;2023-01-28T01:08:37;100933.94;;;4.41;59.36
26823;BME280;14852;51.910;8.878;2023-01-28T01:11:10;100936.50;;;4.44;59.43
26823;BME280;14852;51.910;8.878;2023-01-28T01:13:36;100935.63;;;4.47;59.22
26823;BME280;14852;51.910;8.878;2023-01-28T01:18:32;100941.66;;;4.46;59.07
26823;BME280;14852;51.910;8.878;2023-01-28T01:20:59;100939.94;;;4.45;59.14
26823;BME280;14852;51.910;8.878;2023-01-28T01:23:27;100937.38;;;4.43;59.28
26823;BME280;14852;51.910;8.878;2023-01-28T01:25:53;100930.53;;;4.41;59.26
26823;BME280;14852;51.910;8.878;2023-01-28T01:28:20;100924.53;;;4.38;59.53
26823;BME280;14852;51.910;8.878;2023-01-28T01:30:47;100925.44;;;4.38;59.43
26823;BME280;14852;51.910;8.878;2023-01-28T01:33:14;100925.44;;;4.38;59.17
26823;BME280;14852;51.910;8.878;2023-01-28T01:35:40;100927.09;;;4.38;59.06
26823;BME280;14852;51.910;8.878;2023-01-28T01:38:06;100926.22;;;4.41;59.37
26823;BME280;14852;51.910;8.878;2023-01-28T01:40:35;100926.22;;;4.44;58.99
26823;BME280;14852;51.910;8.878;2023-01-28T01:43:00;100926.22;;;4.44;59.15
26823;BME280;14852;51.910;8.878;2023-01-28T01:45:28;100921.91;;;4.46;59.06
26823;BME280;14852;51.910;8.878;2023-01-28T01:48:09;100928.78;;;4.46;59.22
26823;BME280;14852;51.910;8.878;2023-01-28T01:50:52;100929.66;;;4.45;58.87
26823;BME280;14852;51.910;8.878;2023-01-28T01:53:21;100928.78;;;4.44;59.07
26823;BME280;14852;51.910;8.878;2023-01-28T01:55:51;100935.66;;;4.42;58.80
26823;BME280;14852;51.910;8.878;2023-01-28T01:58:21;100933.09;;;4.41;58.88
26823;BME280;14852;51.910;8.878;2023-01-28T02:00:48;100939.97;;;4.38;58.71
26823;BME280;14852;51.910;8.878;2023-01-28T02:03:16;100943.41;;;4.39;59.20
26823;BME280;14852;51.910;8.878;2023-01-28T02:05:44;100939.09;;;4.40;58.91
26823;BME280;14852;51.910;8.878;2023-01-28T02:08:10;100933.94;;;4.41;58.93
26823;BME280;14852;51.910;8.878;2023-01-28T02:10:55;100938.22;;;4.42;58.95
26823;BME280;14852;51.910;8.878;2023-01-28T02:13:29;100940.81;;;4.42;58.79
26823;BME280;14852;51.910;8.878;2023-01-28T02:16:00;100937.44;;;4.37;58.79
26823;BME280;14852;51.910;8.878;2023-01-28T02:18:27;100950.31;;;4.37;58.84
26823;BME280;14852;51.910;8.878;2023-01-28T02:21:15;100957.19;;;4.33;58.68
26823;BME280;14852;51.910;8.878;2023-01-28T02:30:16;100952.03;;;4.36;58.84
26823;BME280;14852;51.910;8.878;2023-01-28T02:32:56;100949.41;;;4.40;58.85
26823;BME280;14852;51.910;8.878;2023-01-28T02:35:38;100946.81;;;4.40;58.89
26823;BME280;14852;51.910;8.878;2023-01-28T02:38:19;100951.16;;;4.38;58.63
26823;BME280;14852;51.910;8.878;2023-01-28T02:40:54;100951.16;;;4.36;58.87
26823;BME280;14852;51.910;8.878;2023-01-28T02:43:35;100952.91;;;4.34;58.83
26823;BME280;14852;51.910;8.878;2023-01-28T02:52:02;100939.19;;;4.29;58.59
26823;BME280;14852;51.910;8.878;2023-01-28T02:55:01;100946.06;;;4.27;58.74
26823;BME280;14852;51.910;8.878;2023-01-28T02:57:56;100954.69;;;4.21;58.68
26823;BME280;14852;51.910;8.878;2023-01-28T03:03:20;100941.91;;;4.15;58.51
26823;BME280;14852;51.910;8.878;2023-01-28T03:06:02;100950.44;;;4.16;58.79
26823;BME280;14852;51.910;8.878;2023-01-28T03:09:02;100945.28;;;4.16;58.61
26823;BME280;14852;51.910;8.878;2023-01-28T03:12:11;100947.03;;;4.15;58.83
26823;BME280;14852;51.910;8.878;2023-01-28T03:15:27;100950.44;;;4.16;58.65
26823;BME280;14852;51.910;8.878;2023-01-28T03:18:19;100947.00;;;4.18;58.54
26823;BME280;14852;51.910;8.878;2023-01-28T03:21:30;100941.00;;;4.19;58.60
26823;BME280;14852;51.910;8.878;2023-01-28T03:24:39;100944.41;;;4.20;58.64
26823;BME280;14852;51.910;8.878;2023-01-28T03:30:30;100947.84;;;4.22;58.54
26823;BME280;14852;51.910;8.878;2023-01-28T03:33:33;100950.41;;;4.22;58.66
26823;BME280;14852;51.910;8.878;2023-01-28T03:36:18;100948.69;;;4.22;58.62
26823;BME280;14852;51.910;8.878;2023-01-28T03:39:04;100952.13;;;4.24;58.44
26823;BME280;14852;51.910;8.878;2023-01-28T03:41:30;100946.06;;;4.27;58.66
26823;BME280;14852;51.910;8.878;2023-01-28T03:43:57;100942.63;;;4.28;58.56
26823;BME280;14852;51.910;8.878;2023-01-28T03:46:44;100941.81;;;4.26;58.58
26823;BME280;14852;51.910;8.878;2023-01-28T03:49:09;100938.38;;;4.25;58.65
26823;BME280;14852;51.910;8.878;2023-01-28T03:51:35;100934.09;;;4.26;58.47
26823;BME280;14852;51.910;8.878;2023-01-28T03:54:01;100931.47;;;4.29;58.83
26823;BME280;14852;51.910;8.878;2023-01-28T03:56:27;100928.91;;;4.30;58.68
26823;BME280;14852;51.910;8.878;2023-01-28T03:58:58;100925.47;;;4.30;58.47
26823;BME280;14852;51.910;8.878;2023-01-28T04:01:23;100939.19;;;4.30;58.58
26823;BME280;14852;51.910;8.878;2023-01-28T04:03:50;100936.63;;;4.29;58.46
26823;BME280;14852;51.910;8.878;2023-01-28T04:06:22;100939.19;;;4.29;58.38
26823;BME280;14852;51.910;8.878;2023-01-28T04:08:54;100943.50;;;4.28;58.73
26823;BME280;14852;51.910;8.878;2023-01-28T04:11:32;100950.38;;;4.26;58.28
26823;BME280;14852;51.910;8.878;2023-01-28T04:14:00;100958.13;;;4.25;58.18
26823;BME280;14852;51.910;8.878;2023-01-28T04:16:34;100957.28;;;4.23;58.40
26823;BME280;14852;51.910;8.878;2023-01-28T04:19:00;100952.97;;;4.23;58.69
26823;BME280;14852;51.910;8.878;2023-01-28T04:21:26;100955.56;;;4.22;58.53
26823;BME280;14852;51.910;8.878;2023-01-28T04:23:52;100949.53;;;4.23;58.64
26823;BME280;14852;51.910;8.878;2023-01-28T04:26:17;100946.13;;;4.24;58.32
26823;BME280;14852;51.910;8.878;2023-01-28T04:28:43;100950.41;;;4.25;58.52
26823;BME280;14852;51.910;8.878;2023-01-28T04:31:09;100957.28;;;4.23;58.15
26823;BME280;14852;51.910;8.878;2023-01-28T04:33:51;100957.28;;;4.23;58.14
26823;BME280;14852;51.910;8.878;2023-01-28T04:36:33;100959.00;;;4.19;58.31
26823;BME280;14852;51.910;8.878;2023-01-28T04:39:25;100971.88;;;4.16;58.33
26823;BME280;14852;51.910;8.878;2023-01-28T04:42:08;100970.19;;;4.14;58.42
26823;BME280;14852;51.910;8.878;2023-01-28T04:44:52;100978.78;;;4.10;58.51
26823;BME280;14852;51.910;8.878;2023-01-28T04:47:37;100975.38;;;4.06;58.42
26823;BME280;14852;51.910;8.878;2023-01-28T04:50:22;100978.00;;;4.02;58.45
26823;BME280;14852;51.910;8.878;2023-01-28T04:53:18;100977.13;;;4.01;58.81
26823;BME280;14852;51.910;8.878;2023-01-28T04:55:52;100985.72;;;4.02;58.46
26823;BME280;14852;51.910;8.878;2023-01-28T04:58:20;100981.38;;;4.05;58.42
26823;BME280;14852;51.910;8.878;2023-01-28T05:00:56;100984.81;;;4.07;58.49
26823;BME280;14852;51.910;8.878;2023-01-28T05:03:23;100980.53;;;4.05;58.41
26823;BME280;14852;51.910;8.878;2023-01-28T05:05:49;100985.69;;;4.03;58.39
26823;BME280;14852;51.910;8.878;2023-01-28T05:08:32;100976.28;;;4.02;58.18
26823;BME280;14852;51.910;8.878;2023-01-28T05:10:58;100983.13;;;4.03;58.07
26823;BME280;14852;51.910;8.878;2023-01-28T05:13:24;100984.81;;;4.06;58.25
26823;BME280;14852;51.910;8.878;2023-01-28T05:15:51;100980.50;;;4.08;58.63
26823;BME280;14852;51.910;8.878;2023-01-28T05:18:19;100977.94;;;4.09;58.30
26823;BME280;14852;51.910;8.878;2023-01-28T05:20:54;100971.94;;;4.09;58.25
26823;BME280;14852;51.910;8.878;2023-01-28T05:23:20;100976.22;;;4.05;58.31
26823;BME280;14852;51.910;8.878;2023-01-28T05:25:52;100983.09;;;4.05;58.20
26823;BME280;14852;51.910;8.878;2023-01-28T05:28:18;100977.16;;;3.99;58.12
26823;BME280;14852;51.910;8.878;2023-01-28T05:30:45;100968.56;;;3.97;58.11
26823;BME280;14852;51.910;8.878;2023-01-28T05:33:11;100980.56;;;4.02;58.14
26823;BME280;14852;51.910;8.878;2023-01-28T05:35:37;100972.00;;;4.01;57.97
26823;BME280;14852;51.910;8.878;2023-01-28T05:38:03;100978.00;;;4.00;58.13
26823;BME280;14852;51.910;8.878;2023-01-28T05:40:29;100980.56;;;4.02;58.06
26823;BME280;14852;51.910;8.878;2023-01-28T05:42:56;100978.00;;;4.03;57.88
26823;BME280;14852;51.910;8.878;2023-01-28T05:45:31;100980.53;;;4.06;57.82
26823;BME280;14852;51.910;8.878;2023-01-28T05:48:04;100978.81;;;4.05;57.96
26823;BME280;14852;51.910;8.878;2023-01-28T05:51:02;100979.66;;;4.04;57.87
26823;BME280;14852;51.910;8.878;2023-01-28T05:53:37;100984.81;;;4.04;57.96
26823;BME280;14852;51.910;8.878;2023-01-28T05:56:04;100982.28;;;4.03;57.65
26823;BME280;14852;51.910;8.878;2023-01-28T05:58:32;100979.72;;;3.99;57.98
26823;BME280;14852;51.910;8.878;2023-01-28T06:01:01;100986.56;;;4.00;57.58
26823;BME280;14852;51.910;8.878;2023-01-28T06:03:35;100983.13;;;4.02;57.55
26823;BME280;14852;51.910;8.878;2023-01-28T06:06:01;100993.38;;;4.05;57.51
26823;BME280;14852;51.910;8.878;2023-01-28T06:08:27;100990.81;;;4.06;57.43
26823;BME280;14852;51.910;8.878;2023-01-28T06:10:53;100989.09;;;4.07;57.80
26823;BME280;14852;51.910;8.878;2023-01-28T06:13:20;100990.78;;;4.08;57.69
26823;BME280;14852;51.910;8.878;2023-01-28T06:16:15;100987.38;;;4.06;57.70
26823;BME280;14852;51.910;8.878;2023-01-28T06:19:04;100990.81;;;4.05;57.68
26823;BME280;14852;51.910;8.878;2023-01-28T06:21:30;100984.00;;;4.02;57.53
26823;BME280;14852;51.910;8.878;2023-01-28T06:23:57;100984.84;;;4.03;57.67
26823;BME280;14852;51.910;8.878;2023-01-28T06:26:22;100993.38;;;4.05;57.64
26823;BME280;14852;51.910;8.878;2023-01-28T06:28:50;100995.09;;;4.04;57.38
26823;BME280;14852;51.910;8.878;2023-01-28T06:31:15;100994.25;;;4.05;57.58
26823;BME280;14852;51.910;8.878;2023-01-28T06:33:41;100991.66;;;4.08;57.39
26823;BME280;14852;51.910;8.878;2023-01-28T06:36:07;100997.66;;;4.06;57.38
26823;BME280;14852;51.910;8.878;2023-01-28T06:38:33;100998.56;;;4.02;57.51
26823;BME280;14852;51.910;8.878;2023-01-28T06:40:59;100997.72;;;3.99;57.63
26823;BME280;14852;51.910;8.878;2023-01-28T06:43:25;100999.41;;;4.02;57.53
26823;BME280;14852;51.910;8.878;2023-01-28T06:45:53;100996.00;;;4.03;57.25
26823;BME280;14852;51.910;8.878;2023-01-28T06:48:20;100998.53;;;4.06;57.53
26823;BME280;14852;51.910;8.878;2023-01-28T06:50:47;100994.28;;;4.02;57.36
26823;BME280;14852;51.910;8.878;2023-01-28T06:53:14;100990.00;;;3.99;57.54
26823;BME280;14852;51.910;8.878;2023-01-28T06:55:40;100990.00;;;4.01;57.40
26823;BME280;14852;51.910;8.878;2023-01-28T06:58:06;100991.69;;;4.04;57.23
26823;BME280;14852;51.910;8.878;2023-01-28T07:00:32;100989.13;;;4.04;57.40
26823;BME280;14852;51.910;8.878;2023-01-28T07:02:57;100998.53;;;4.05;57.36
26823;BME280;14852;51.910;8.878;2023-01-28T07:05:23;100995.09;;;4.06;57.31
26823;BME280;14852;51.910;8.878;2023-01-28T07:07:49;100989.09;;;4.08;57.39
26823;BME280;14852;51.910;8.878;2023-01-28T07:10:16;100994.22;;;4.08;57.24
26823;BME280;14852;51.910;8.878;2023-01-28T07:12:42;100995.94;;;4.09;57.59
26823;BME280;14852;51.910;8.878;2023-01-28T07:15:08;100996.78;;;4.10;57.19
26823;BME280;14852;51.910;8.878;2023-01-28T07:17:40;100998.50;;;4.09;57.33
26823;BME280;14852;51.910;8.878;2023-01-28T07:20:10;100994.22;;;4.07;57.63
26823;BME280;14852;51.910;8.878;2023-01-28T07:22:39;100988.22;;;4.06;57.34
26823;BME280;14852;51.910;8.878;2023-01-28T07:25:07;100987.38;;;4.07;57.58
26823;BME280;14852;51.910;8.878;2023-01-28T07:27:33;100988.22;;;4.09;57.42
26823;BME280;14852;51.910;8.878;2023-01-28T07:29:59;100989.06;;;4.10;57.45
26823;BME280;14852;51.910;8.878;2023-01-28T07:32:24;100991.66;;;4.11;57.33
26823;BME280;14852;51.910;8.878;2023-01-28T07:34:54;100989.94;;;4.09;57.36
26823;BME280;14852;51.910;8.878;2023-01-28T07:37:20;100991.66;;;4.08;57.17
26823;BME280;14852;51.910;8.878;2023-01-28T07:39:46;100986.50;;;4.08;57.21
26823;BME280;14852;51.910;8.878;2023-01-28T07:42:12;100992.50;;;4.09;57.00
26823;BME280;14852;51.910;8.878;2023-01-28T07:44:45;100995.09;;;4.09;57.11
26823;BME280;14852;51.910;8.878;2023-01-28T07:47:10;101001.09;;;4.09;57.16
26823;BME280;14852;51.910;8.878;2023-01-28T07:49:36;101000.22;;;4.10;57.04
26823;BME280;14852;51.910;8.878;2023-01-28T07:52:05;101004.50;;;4.11;57.16
26823;BME280;14852;51.910;8.878;2023-01-28T07:54:31;101002.78;;;4.12;57.08
26823;BME280;14852;51.910;8.878;2023-01-28T07:56:56;101008.78;;;4.12;56.96
26823;BME280;14852;51.910;8.878;2023-01-28T07:59:22;101009.63;;;4.13;56.85
26823;BME280;14852;51.910;8.878;2023-01-28T08:01:48;101015.59;;;4.16;56.69
26823;BME280;14852;51.910;8.878;2023-01-28T08:04:14;101019.88;;;4.20;56.63
26823;BME280;14852;51.910;8.878;2023-01-28T08:06:39;101023.31;;;4.21;56.86
26823;BME280;14852;51.910;8.878;2023-01-28T08:09:06;101020.72;;;4.21;56.85
26823;BME280;14852;51.910;8.878;2023-01-28T08:11:36;101024.16;;;4.21;56.54
26823;BME280;14852;51.910;8.878;2023-01-28T08:14:01;101029.28;;;4.23;56.65
26823;BME280;14852;51.910;8.878;2023-01-28T08:16:27;101022.44;;;4.25;56.68
26823;BME280;14852;51.910;8.878;2023-01-28T08:18:53;101028.38;;;4.28;57.00
26823;BME280;14852;51.910;8.878;2023-01-28T08:21:19;101029.22;;;4.32;56.66
26823;BME280;14852;51.910;8.878;2023-01-28T08:23:45;101031.81;;;4.32;56.57
26823;BME280;14852;51.910;8.878;2023-01-28T08:26:11;101029.25;;;4.30;56.55
26823;BME280;14852;51.910;8.878;2023-01-28T08:28:37;101031.81;;;4.32;56.47
26823;BME280;14852;51.910;8.878;2023-01-28T08:31:03;101044.66;;;4.38;56.46
26823;BME280;14852;51.910;8.878;2023-01-28T08:33:29;101041.16;;;4.42;56.18
26823;BME280;14852;51.910;8.878;2023-01-28T08:35:54;101044.56;;;4.47;56.13
26823;BME280;14852;51.910;8.878;2023-01-28T08:38:20;101057.41;;;4.50;55.84
26823;BME280;14852;51.910;8.878;2023-01-28T08:40:47;101054.00;;;4.50;55.88
26823;BME280;14852;51.910;8.878;2023-01-28T08:43:15;101047.09;;;4.52;56.04
26823;BME280;14852;51.910;8.878;2023-01-28T08:45:41;101047.09;;;4.53;55.76
26823;BME280;14852;51.910;8.878;2023-01-28T08:48:11;101056.53;;;4.54;55.77
26823;BME280;14852;51.910;8.878;2023-01-28T08:50:39;101063.38;;;4.54;56.05
26823;BME280;14852;51.910;8.878;2023-01-28T08:53:15;101067.69;;;4.55;55.74
26823;BME280;14852;51.910;8.878;2023-01-28T08:55:42;101070.25;;;4.55;55.71
26823;BME280;14852;51.910;8.878;2023-01-28T08:58:14;101068.53;;;4.57;55.43
26823;BME280;14852;51.910;8.878;2023-01-28T09:00:40;101067.66;;;4.61;55.59
26823;BME280;14852;51.910;8.878;2023-01-28T09:03:07;101086.47;;;4.66;55.44
26823;BME280;14852;51.910;8.878;2023-01-28T09:05:36;101083.03;;;4.71;55.37
26823;BME280;14852;51.910;8.878;2023-01-28T09:08:13;101094.97;;;4.77;55.29
26823;BME280;14852;51.910;8.878;2023-01-28T09:10:39;101101.84;;;4.77;55.25
26823;BME280;14852;51.910;8.878;2023-01-28T09:13:15;101109.56;;;4.75;55.15
26823;BME280;14852;51.910;8.878;2023-01-28T09:15:41;101106.16;;;4.73;55.27
26823;BME280;14852;51.910;8.878;2023-01-28T09:18:08;101117.34;;;4.70;55.63
26823;BME280;14852;51.910;8.878;2023-01-28T09:20:34;101110.50;;;4.69;55.64
26823;BME280;14852;51.910;8.878;2023-01-28T09:23:00;101102.75;;;4.69;55.41
26823;BME280;14852;51.910;8.878;2023-01-28T09:25:26;101110.47;;;4.71;55.49
26823;BME280;14852;51.910;8.878;2023-01-28T09:27:52;101119.03;;;4.73;55.38
26823;BME280;14852;51.910;8.878;2023-01-28T09:30:18;101122.50;;;4.72;55.01
26823;BME280;14852;51.910;8.878;2023-01-28T09:32:44;101114.78;;;4.70;54.89
26823;BME280;14852;51.910;8.878;2023-01-28T09:35:10;101111.34;;;4.70;54.93
26823;BME280;14852;51.910;8.878;2023-01-28T09:37:36;101119.06;;;4.68;54.91
26823;BME280;14852;51.910;8.878;2023-01-28T09:40:02;101136.25;;;4.65;54.98
26823;BME280;14852;51.910;8.878;2023-01-28T09:43:06;101131.09;;;4.62;55.22
26823;BME280;14852;51.910;8.878;2023-01-28T09:45:41;101132.88;;;4.57;55.08
26823;BME280;14852;51.910;8.878;2023-01-28T09:48:18;101135.47;;;4.54;55.40
26823;BME280;14852;51.910;8.878;2023-01-28T09:50:52;101143.19;;;4.54;55.20
26823;BME280;14852;51.910;8.878;2023-01-28T09:53:32;101134.59;;;4.55;55.27
26823;BME280;14852;51.910;8.878;2023-01-28T09:56:10;101144.91;;;4.53;55.36
26823;BME280;14852;51.910;8.878;2023-01-28T09:58:37;101144.91;;;4.53;55.14
26823;BME280;14852;51.910;8.878;2023-01-28T10:01:29;101138.03;;;4.55;55.31
26823;BME280;14852;51.910;8.878;2023-01-28T10:10:23;101138.03;;;4.51;55.14
26823;BME280;14852;51.910;8.878;2023-01-28T10:16:24;101129.50;;;4.46;55.13
26823;BME280;14852;51.910;8.878;2023-01-28T10:19:23;101138.09;;;4.45;54.90
26823;BME280;14852;51.910;8.878;2023-01-28T10:22:01;101138.94;;;4.47;54.86
26823;BME280;14852;51.910;8.878;2023-01-28T10:24:35;101132.94;;;4.46;54.73
26823;BME280;14852;51.910;8.878;2023-01-28T10:27:19;101124.31;;;4.53;54.69
26823;BME280;14852;51.910;8.878;2023-01-28T10:29:47;101126.88;;;4.56;54.59
26823;BME280;14852;51.910;8.878;2023-01-28T10:32:34;101119.09;;;4.62;54.22
26823;BME280;14852;51.910;8.878;2023-01-28T10:35:03;101117.38;;;4.67;54.05
26823;BME280;14852;51.910;8.878;2023-01-28T10:37:36;101101.91;;;4.72;53.93
26823;BME280;14852;51.910;8.878;2023-01-28T10:40:03;101107.84;;;4.79;54.25
26823;BME280;14852;51.910;8.878;2023-01-28T10:42:35;101106.97;;;4.84;53.95
26823;BME280;14852;51.910;8.878;2023-01-28T10:45:21;101112.03;;;4.95;54.00
26823;BME280;14852;51.910;8.878;2023-01-28T10:48:12;101111.03;;;5.09;53.83
26823;BME280;14852;51.910;8.878;2023-01-28T10:50:55;101105.81;;;5.17;53.69
26823;BME280;14852;51.910;8.878;2023-01-28T10:53:41;101107.53;;;5.18;53.78
26823;BME280;14852;51.910;8.878;2023-01-28T10:56:46;101120.47;;;5.10;53.79
26823;BME280;14852;51.910;8.878;2023-01-28T10:59:24;101116.16;;;5.13;53.93
26823;BME280;14852;51.910;8.878;2023-01-28T11:02:01;101113.59;;;5.11;53.63
26823;BME280;14852;51.910;8.878;2023-01-28T11:04:34;101121.31;;;5.09;53.81
26823;BME280;14852;51.910;8.878;2023-01-28T11:07:03;101126.47;;;5.11;53.66
26823;BME280;14852;51.910;8.878;2023-01-28T11:09:36;101128.19;;;5.09;53.64
26823;BME280;14852;51.910;8.878;2023-01-28T11:12:28;101131.69;;;5.06;53.37
26823;BME280;14852;51.910;8.878;2023-01-28T11:15:00;101127.44;;;4.98;53.54
26823;BME280;14852;51.910;8.878;2023-01-28T11:17:33;101130.91;;;4.94;53.61
26823;BME280;14852;51.910;8.878;2023-01-28T11:20:17;101129.19;;;4.93;53.63
26823;BME280;14852;51.910;8.878;2023-01-28T11:22:44;101129.22;;;4.88;53.64
26823;BME280;14852;51.910;8.878;2023-01-28T11:25:35;101140.38;;;4.89;53.65
26823;BME280;14852;51.910;8.878;2023-01-28T11:28:07;101138.69;;;4.86;53.70
26823;BME280;14852;51.910;8.878;2023-01-28T11:30:40;101131.81;;;4.85;53.68
26823;BME280;14852;51.910;8.878;2023-01-28T11:33:23;101130.94;;;4.88;53.69
26823;BME280;14852;51.910;8.878;2023-01-28T11:36:03;101132.72;;;4.84;53.87
26823;BME280;14852;51.910;8.878;2023-01-28T11:38:29;101131.81;;;4.87;53.66
26823;BME280;14852;51.910;8.878;2023-01-28T11:40:57;101128.34;;;4.91;53.88
26823;BME280;14852;51.910;8.878;2023-01-28T11:43:26;101119.75;;;4.95;53.45
26823;BME280;14852;51.910;8.878;2023-01-28T11:46:42;101121.47;;;4.96;53.58
26823;BME280;14852;51.910;8.878;2023-01-28T11:49:05;101132.56;;;5.01;53.24
26823;BME280;14852;51.910;8.878;2023-01-28T11:52:08;101122.25;;;5.04;53.59
26823;BME280;14852;51.910;8.878;2023-01-28T12:04:16;101096.41;;;5.15;53.05
26823;BME280;14852;51.910;8.878;2023-01-28T12:07:49;101089.41;;;5.26;52.83
26823;BME280;14852;51.910;8.878;2023-01-28T12:13:28;101084.16;;;5.36;52.56
26823;BME280;14852;51.910;8.878;2023-01-28T12:16:35;101091.88;;;5.39;52.61
26823;BME280;14852;51.910;8.878;2023-01-28T12:19:32;101090.16;;;5.40;52.69
26823;BME280;14852;51.910;8.878;2023-01-28T12:22:22;101083.28;;;5.40;52.44
26823;BME280;14852;51.910;8.878;2023-01-28T12:25:08;101075.47;;;5.45;52.80
26823;BME280;14852;51.910;8.878;2023-01-28T12:31:06;101074.47;;;5.60;52.37
26823;BME280;14852;51.910;8.878;2023-01-28T12:33:44;101067.59;;;5.59;52.40
26823;BME280;14852;51.910;8.878;2023-01-28T12:36:37;101067.59;;;5.57;52.72
26823;BME280;14852;51.910;8.878;2023-01-28T12:42:17;101027.41;;;5.41;52.93
26823;BME280;14852;51.910;8.878;2023-01-28T12:44:58;101020.69;;;5.28;52.94
26823;BME280;14852;51.910;8.878;2023-01-28T12:47:33;101013.91;;;5.19;53.24
26823;BME280;14852;51.910;8.878;2023-01-28T12:50:19;100999.34;;;5.14;53.36
26823;BME280;14852;51.910;8.878;2023-01-28T12:52:56;100983.97;;;5.07;53.47
26823;BME280;14852;51.910;8.878;2023-01-28T12:58:05;100965.13;;;5.01;53.68
26823;BME280;14852;51.910;8.878;2023-01-28T13:00:35;100951.44;;;4.97;53.57
26823;BME280;14852;51.910;8.878;2023-01-28T13:04:15;100935.91;;;5.06;53.30
26823;BME280;14852;51.910;8.878;2023-01-28T13:06:36;100928.06;;;5.17;52.96
26823;BME280;14852;51.910;8.878;2023-01-28T13:09:17;100928.91;;;5.19;52.91
26823;BME280;14852;51.910;8.878;2023-01-28T13:11:45;100953.81;;;5.19;52.76
26823;BME280;14852;51.910;8.878;2023-01-28T13:14:13;100970.06;;;5.21;52.53
26823;BME280;14852;51.910;8.878;2023-01-28T13:16:39;100994.09;;;5.23;52.38
26823;BME280;14852;51.910;8.878;2023-01-28T13:19:24;101001.94;;;5.14;52.39
26823;BME280;14852;51.910;8.878;2023-01-28T13:22:24;100989.13;;;5.07;52.63
26823;BME280;14852;51.910;8.878;2023-01-28T13:24:50;100986.69;;;4.95;52.92
26823;BME280;14852;51.910;8.878;2023-01-28T13:27:26;100980.63;;;4.96;52.95
26823;BME280;14852;51.910;8.878;2023-01-28T13:30:24;100965.13;;;5.01;52.72
26823;BME280;14852;51.910;8.878;2023-01-28T13:33:05;100986.50;;;5.09;52.73
26823;BME280;14852;51.910;8.878;2023-01-28T13:35:39;100987.34;;;5.11;52.73
26823;BME280;14852;51.910;8.878;2023-01-28T13:38:16;100995.16;;;5.05;52.61
26823;BME280;14852;51.910;8.878;2023-01-28T13:40:55;101018.38;;;5.00;52.72
26823;BME280;14852;51.910;8.878;2023-01-28T13:46:11;101023.53;;;5.00;52.73
26823;BME280;14852;51.910;8.878;2023-01-28T13:48:48;101031.25;;;4.99;52.82
26823;BME280;14852;51.910;8.878;2023-01-28T13:51:27;101037.28;;;4.96;53.09
26823;BME280;14852;51.910;8.878;2023-01-28T13:54:13;101033.00;;;4.97;52.76
26823;BME280;14852;51.910;8.878;2023-01-28T14:06:12;101040.13;;;4.70;53.07
26823;BME280;14852;51.910;8.878;2023-01-28T14:12:10;101049.56;;;4.67;53.06
26823;BME280;14852;51.910;8.878;2023-01-28T14:15:10;101053.88;;;4.65;53.04
26823;BME280;14852;51.910;8.878;2023-01-28T14:17:55;101041.06;;;4.60;53.02
26823;BME280;14852;51.910;8.878;2023-01-28T14:20:25;101024.78;;;4.57;53.29
26823;BME280;14852;51.910;8.878;2023-01-28T14:22:56;101010.16;;;4.59;53.27
26823;BME280;14852;51.910;8.878;2023-01-28T14:25:38;101010.19;;;4.57;53.37
26823;BME280;14852;51.910;8.878;2023-01-28T14:28:32;100994.75;;;4.56;53.28
26823;BME280;14852;51.910;8.878;2023-01-28T14:34:04;100975.94;;;4.48;53.19
26823;BME280;14852;51.910;8.878;2023-01-28T14:36:36;100959.69;;;4.43;53.43
26823;BME280;14852;51.910;8.878;2023-01-28T14:39:03;100950.31;;;4.37;53.34
26823;BME280;14852;51.910;8.878;2023-01-28T14:41:29;100952.91;;;4.29;53.44
26823;BME280;14852;51.910;8.878;2023-01-28T14:43:55;100960.69;;;4.26;53.42
26823;BME280;14852;51.910;8.878;2023-01-28T14:46:44;100971.78;;;4.28;53.31